Time;durP1;ratioP1;P1;durP2;ratioP2;P2;SDS_P1;SDS_P2;PMS_P1;PMS_P2;Temp;Humidity;BMP_temperature;BMP_pressure;BME280_temperature;BME280_humidity;BME280_pressure;Samples;Min_cycle;Max_cycle;Signal;HPM_P1;HPM_P2
2023/03/14 00:00:14;;;;;;;3.65;1.15;;;16.50;71.70;;;;;;5063553;28;20049;-73
2023/03/14 00:02:40;;;;;;;4.75;1.08;;;16.50;71.60;;;;;;5047768;28;20020;-73
2023/03/14 00:05:08;;;;;;;7.45;1.65;;;16.50;71.70;;;;;;5064130;28;20017;-73
2023/03/14 00:07:38;;;;;;;1.65;0.93;;;16.50;71.70;;;;;;5063790;28;20017;-73
2023/03/14 00:10:09;;;;;;;3.78;0.95;;;16.50;71.70;;;;;;5064295;28;20056;-73
2023/03/14 00:12:34;;;;;;;2.78;1.13;;;16.50;72.70;;;;;;5032327;28;20017;-73
2023/03/14 00:15:03;;;;;;;3.40;0.95;;;16.50;71.70;;;;;;5064038;28;20067;-73
2023/03/14 00:17:29;;;;;;;2.88;1.02;;;16.50;71.70;;;;;;5047261;28;20556;-73
2023/03/14 00:19:54;;;;;;;4.68;1.27;;;16.50;71.70;;;;;;5064206;28;20124;-73
2023/03/14 00:22:20;;;;;;;4.85;1.23;;;16.40;71.70;;;;;;5064311;28;20100;-73
2023/03/14 00:24:46;;;;;;;3.38;1.20;;;16.50;71.70;;;;;;5047506;28;20022;-73
2023/03/14 00:27:11;;;;;;;4.65;1.23;;;16.50;71.80;;;;;;5064212;28;20056;-73
2023/03/14 00:29:37;;;;;;;2.40;0.88;;;16.50;71.90;;;;;;5030876;28;20029;-73
2023/03/14 00:32:03;;;;;;;3.75;1.10;;;16.40;71.90;;;;;;5047239;28;20029;-73
2023/03/14 00:34:30;;;;;;;5.63;1.35;;;16.50;72.00;;;;;;5064303;28;20025;-73
2023/03/14 00:36:55;;;;;;;5.03;1.23;;;16.40;72.10;;;;;;5047557;28;20108;-73
2023/03/14 00:39:21;;;;;;;4.57;1.35;;;16.40;72.20;;;;;;5053037;28;20068;-72
2023/03/14 00:41:47;;;;;;;3.78;1.10;;;16.40;72.20;;;;;;5084367;28;20020;-72
2023/03/14 00:44:13;;;;;;;3.45;1.15;;;16.40;72.30;;;;;;5086151;28;20052;-72
2023/03/14 00:46:38;;;;;;;4.63;1.45;;;16.40;72.30;;;;;;5055847;28;20048;-72
2023/03/14 00:49:04;;;;;;;3.03;1.20;;;16.40;72.30;;;;;;5088109;28;20025;-72
2023/03/14 00:51:30;;;;;;;5.38;1.05;;;16.40;72.30;;;;;;5054352;28;20048;-73
2023/03/14 00:53:55;;;;;;;7.22;1.63;;;16.40;72.30;;;;;;5055832;28;20032;-73
2023/03/14 00:56:21;;;;;;;8.15;1.40;;;16.40;72.40;;;;;;5055705;28;20514;-73
2023/03/14 00:58:46;;;;;;;8.13;1.50;;;16.40;72.40;;;;;;5054397;28;20562;-72
2023/03/14 01:01:17;;;;;;;4.80;1.25;;;16.40;72.50;;;;;;5055499;28;20021;-72
2023/03/14 01:03:43;;;;;;;5.65;1.60;;;16.40;72.50;;;;;;5054407;28;20037;-73
2023/03/14 01:06:13;;;;;;;3.83;1.38;;;16.40;72.50;;;;;;5037729;28;20493;-72
2023/03/14 01:08:39;;;;;;;5.25;1.52;;;16.30;72.40;;;;;;5055516;28;20254;-72
2023/03/14 01:11:09;;;;;;;4.03;1.05;;;16.30;72.40;;;;;;5054006;28;20017;-73
2023/03/14 01:13:34;;;;;;;6.00;1.95;;;16.30;72.50;;;;;;5055473;28;20036;-73
2023/03/14 01:16:07;;;;;;;3.20;1.20;;;16.30;72.50;;;;;;5054100;28;20024;-73
2023/03/14 01:18:34;;;;;;;5.65;1.67;;;16.30;72.50;;;;;;5054123;28;20488;-73
2023/03/14 01:21:00;;;;;;;6.40;1.40;;;16.30;72.50;;;;;;5054200;28;20045;-73
2023/03/14 01:23:26;;;;;;;5.28;1.42;;;16.30;72.50;;;;;;5054125;28;20033;-73
2023/03/14 01:25:52;;;;;;;7.03;1.20;;;16.30;72.50;;;;;;5054106;28;20059;-73
2023/03/14 01:28:17;;;;;;;7.78;1.50;;;16.30;72.40;;;;;;5053671;28;20043;-73
2023/03/14 01:30:43;;;;;;;4.68;1.48;;;16.30;72.50;;;;;;5055229;28;20048;-73
2023/03/14 01:33:08;;;;;;;5.22;1.30;;;16.30;73.50;;;;;;5053839;28;20029;-73
2023/03/14 01:35:34;;;;;;;4.82;1.60;;;16.30;72.50;;;;;;5053990;28;20021;-73
2023/03/14 01:38:00;;;;;;;6.80;1.42;;;16.30;72.50;;;;;;5053977;28;20029;-73
2023/03/14 01:40:25;;;;;;;5.50;1.58;;;16.30;72.20;;;;;;5054686;28;20029;-73
2023/03/14 01:42:58;;;;;;;5.35;1.55;;;16.30;72.60;;;;;;5053522;28;20025;-73
2023/03/14 01:45:58;;;;;;;3.60;1.38;;;16.30;72.60;;;;;;5053631;28;20123;-73
2023/03/14 01:48:24;;;;;;;5.03;1.65;;;16.30;72.60;;;;;;5042800;28;20033;-73
2023/03/14 01:50:50;;;;;;;4.75;1.30;;;16.20;72.20;;;;;;5033257;28;20046;-73
2023/03/14 01:53:17;;;;;;;6.07;1.33;;;16.20;72.40;;;;;;5050115;28;20034;-73
2023/03/14 01:55:42;;;;;;;6.93;1.40;;;16.20;72.50;;;;;;5065157;28;20080;-73
2023/03/14 01:58:08;;;;;;;3.03;1.13;;;16.20;72.10;;;;;;5050028;28;20467;-73
2023/03/14 02:00:34;;;;;;;5.68;1.55;;;16.20;72.50;;;;;;5050011;28;20443;-73
2023/03/14 02:03:05;;;;;;;4.05;1.42;;;16.20;72.00;;;;;;5034500;28;20481;-73
2023/03/14 02:05:34;;;;;;;8.52;1.70;;;16.20;72.30;;;;;;5049789;28;20021;-72
2023/03/14 02:08:00;;;;;;;4.07;1.40;;;16.20;72.60;;;;;;5049814;28;20021;-72
2023/03/14 02:10:31;;;;;;;7.18;1.52;;;16.20;72.40;;;;;;5049388;28;20018;-73
2023/03/14 02:12:57;;;;;;;3.75;1.00;;;16.20;72.50;;;;;;5049876;28;20112;-72
2023/03/14 02:15:23;;;;;;;6.47;1.70;;;16.20;72.30;;;;;;5049712;28;20430;-72
2023/03/14 02:17:48;;;;;;;9.55;2.13;;;16.10;72.10;;;;;;5049564;28;20025;-72
2023/03/14 02:20:55;;;;;;;5.95;1.48;;;16.10;72.20;;;;;;5066276;28;20025;-72
2023/03/14 02:23:36;;;;;;;4.85;1.50;;;16.10;72.10;;;;;;5031781;28;20556;-72
2023/03/14 02:26:06;;;;;;;6.88;1.58;;;16.10;72.30;;;;;;5000718;28;20059;-72
2023/03/14 02:28:31;;;;;;;4.70;1.42;;;16.10;72.20;;;;;;4999344;28;20221;-72
2023/03/14 02:30:57;;;;;;;7.95;1.67;;;16.10;72.20;;;;;;4999208;28;20104;-73
2023/03/14 02:33:22;;;;;;;6.28;1.95;;;16.10;72.30;;;;;;4999125;28;20140;-73
2023/03/14 02:35:50;;;;;;;4.82;1.30;;;16.10;72.40;;;;;;4999214;28;20081;-74
2023/03/14 02:38:31;;;;;;;6.45;1.80;;;16.10;72.50;;;;;;5015358;28;20040;-73
2023/03/14 02:40:56;;;;;;;4.90;1.67;;;16.10;72.50;;;;;;5050375;28;20120;-73
2023/03/14 02:43:22;;;;;;;5.50;1.65;;;16.10;72.40;;;;;;5034896;28;20128;-73
2023/03/14 02:45:48;;;;;;;6.55;1.75;;;16.10;72.40;;;;;;5034948;28;20032;-74
2023/03/14 02:48:49;;;;;;;6.15;1.50;;;16.10;72.40;;;;;;5034978;28;20033;-74
2023/03/14 02:51:14;;;;;;;5.25;1.48;;;16.10;72.40;;;;;;5008086;28;20049;-74
2023/03/14 02:53:41;;;;;;;6.50;1.60;;;16.10;72.50;;;;;;5015235;28;20583;-74
2023/03/14 02:56:07;;;;;;;5.13;1.98;;;16.10;72.40;;;;;;5049103;28;20026;-73
2023/03/14 02:58:33;;;;;;;4.22;1.30;;;16.10;72.40;;;;;;5048730;28;20113;-74
2023/03/14 03:00:59;;;;;;;8.70;1.60;;;16.00;72.00;;;;;;5032281;28;20108;-73
2023/03/14 03:03:24;;;;;;;6.57;1.77;;;16.00;72.30;;;;;;5033432;28;20064;-74
2023/03/14 03:05:51;;;;;;;7.45;1.88;;;16.00;72.10;;;;;;5064913;28;20075;-74
2023/03/14 03:08:17;;;;;;;5.25;1.52;;;16.00;72.20;;;;;;5031807;28;20021;-74
2023/03/14 03:10:43;;;;;;;7.03;1.75;;;16.00;72.20;;;;;;5048642;28;20100;-74
2023/03/14 03:13:09;;;;;;;6.47;2.03;;;16.00;72.30;;;;;;5065373;28;20109;-73
2023/03/14 03:15:34;;;;;;;6.72;1.90;;;16.00;72.20;;;;;;5033157;28;20037;-73
2023/03/14 03:18:00;;;;;;;9.18;1.88;;;16.00;72.20;;;;;;5048653;28;20075;-73
2023/03/14 03:20:26;;;;;;;5.47;1.60;;;16.00;72.20;;;;;;5033035;28;20029;-73
2023/03/14 03:22:51;;;;;;;4.85;1.52;;;16.00;72.10;;;;;;5065007;28;20144;-73
2023/03/14 03:25:17;;;;;;;6.55;1.50;;;16.00;71.80;;;;;;5032930;28;20025;-73
2023/03/14 03:27:42;;;;;;;4.68;1.58;;;16.00;72.00;;;;;;5048301;28;20444;-72
2023/03/14 03:30:09;;;;;;;6.57;1.85;;;16.00;71.90;;;;;;5064978;28;20104;-72
2023/03/14 03:32:34;;;;;;;5.68;1.73;;;16.00;72.10;;;;;;5065066;28;20036;-72
2023/03/14 03:35:01;;;;;;;5.25;1.40;;;16.00;72.00;;;;;;5064843;28;20022;-72
2023/03/14 03:37:26;;;;;;;7.10;1.83;;;16.00;71.70;;;;;;5048137;28;20033;-72
2023/03/14 03:39:52;;;;;;;6.30;1.80;;;16.00;71.80;;;;;;5058047;28;20027;-72
2023/03/14 03:42:18;;;;;;;8.98;1.70;;;15.90;71.30;;;;;;5084727;28;20090;-72
2023/03/14 03:44:44;;;;;;;6.45;1.83;;;15.90;71.80;;;;;;5084842;28;20500;-72
2023/03/14 03:47:10;;;;;;;4.32;1.33;;;15.90;71.50;;;;;;5084699;28;20021;-72
2023/03/14 03:49:35;;;;;;;5.88;1.70;;;15.90;71.70;;;;;;5034412;28;20053;-73
2023/03/14 03:52:01;;;;;;;6.13;1.60;;;15.90;71.70;;;;;;5051254;28;20036;-74
2023/03/14 03:54:28;;;;;;;5.07;1.20;;;15.90;71.20;;;;;;5051069;28;20029;-74
2023/03/14 03:56:54;;;;;;;5.78;1.70;;;15.90;71.50;;;;;;5051354;28;20029;-74
2023/03/14 03:59:21;;;;;;;4.35;1.50;;;15.90;71.60;;;;;;5051406;28;20064;-74
2023/03/14 04:01:46;;;;;;;5.72;1.65;;;15.90;71.60;;;;;;5051180;28;20017;-74
2023/03/14 04:04:12;;;;;;;6.03;1.92;;;15.90;71.50;;;;;;5051203;28;20112;-74
2023/03/14 04:06:38;;;;;;;5.88;1.48;;;15.90;71.60;;;;;;5050746;28;20096;-73
2023/03/14 04:09:04;;;;;;;4.72;1.55;;;15.90;71.60;;;;;;5051346;28;20021;-74
2023/03/14 04:11:29;;;;;;;7.45;1.70;;;15.80;71.60;;;;;;5050986;28;20021;-74
2023/03/14 04:13:55;;;;;;;8.38;1.83;;;15.90;71.60;;;;;;5051125;28;20025;-74
2023/03/14 04:16:22;;;;;;;6.50;1.92;;;15.90;71.50;;;;;;5052041;28;20027;-74
2023/03/14 04:18:48;;;;;;;7.63;1.75;;;15.80;71.30;;;;;;5050208;28;20029;-74
2023/03/14 04:21:13;;;;;;;7.03;1.95;;;15.80;71.30;;;;;;5050883;28;20070;-74
2023/03/14 04:23:39;;;;;;;5.60;2.00;;;15.80;71.00;;;;;;5050927;28;20079;-74
2023/03/14 04:26:05;;;;;;;6.57;1.90;;;15.80;71.30;;;;;;5050919;28;20017;-74
2023/03/14 04:28:30;;;;;;;5.90;1.80;;;15.80;71.10;;;;;;5050691;28;20025;-74
2023/03/14 04:30:56;;;;;;;5.00;1.40;;;15.80;71.40;;;;;;5050873;28;20018;-74
2023/03/14 04:33:22;;;;;;;7.75;1.88;;;15.80;71.40;;;;;;5034172;28;20507;-74
2023/03/14 04:35:49;;;;;;;7.45;1.92;;;15.80;71.40;;;;;;5050619;28;20092;-74
2023/03/14 04:38:15;;;;;;;7.13;1.75;;;15.80;71.40;;;;;;5050989;28;20029;-74
2023/03/14 04:40:41;;;;;;;6.88;1.73;;;15.80;71.30;;;;;;5050605;28;20032;-74
2023/03/14 04:43:08;;;;;;;8.07;1.80;;;15.80;71.40;;;;;;5084157;28;20051;-74
2023/03/14 04:45:33;;;;;;;7.15;1.63;;;15.80;71.40;;;;;;5084001;28;20044;-74
2023/03/14 04:47:59;;;;;;;8.10;2.00;;;15.80;71.30;;;;;;5075409;28;20099;-74
2023/03/14 04:50:25;;;;;;;7.82;1.95;;;15.80;71.60;;;;;;5031981;28;20139;-74
2023/03/14 04:52:50;;;;;;;8.02;1.70;;;15.80;71.50;;;;;;5047465;28;20492;-74
2023/03/14 04:55:16;;;;;;;5.82;1.73;;;15.80;71.50;;;;;;5063987;28;20097;-74
2023/03/14 04:57:41;;;;;;;7.50;1.90;;;15.80;71.40;;;;;;5063952;28;20396;-74
2023/03/14 05:00:08;;;;;;;6.82;2.00;;;15.80;71.40;;;;;;5047307;28;20032;-74
2023/03/14 05:02:34;;;;;;;4.60;1.38;;;15.80;71.30;;;;;;5046969;28;20036;-74
2023/03/14 05:05:00;;;;;;;5.22;1.70;;;15.80;71.50;;;;;;5046979;28;20440;-74
2023/03/14 05:07:26;;;;;;;4.82;1.50;;;15.80;71.40;;;;;;5047292;28;20378;-74
2023/03/14 05:09:53;;;;;;;4.10;1.58;;;15.80;71.50;;;;;;5064156;28;20540;-74
2023/03/14 05:12:19;;;;;;;8.27;2.08;;;15.70;71.40;;;;;;5063421;28;20484;-74
2023/03/14 05:14:45;;;;;;;6.63;1.88;;;15.70;71.20;;;;;;5063723;28;20025;-74
2023/03/14 05:17:11;;;;;;;3.92;1.33;;;15.70;71.40;;;;;;5063645;28;20018;-73
2023/03/14 05:19:36;;;;;;;4.45;1.42;;;15.70;71.30;;;;;;5031493;28;20036;-73
2023/03/14 05:22:02;;;;;;;4.18;1.65;;;15.70;71.30;;;;;;5047182;28;20409;-73
2023/03/14 05:24:28;;;;;;;4.60;1.52;;;15.70;71.20;;;;;;5078377;28;20017;-73
2023/03/14 05:26:54;;;;;;;8.05;1.90;;;15.70;71.20;;;;;;5049229;28;20520;-73
2023/03/14 05:29:19;;;;;;;6.85;1.50;;;15.70;71.20;;;;;;5083834;28;20036;-73
2023/03/14 05:31:45;;;;;;;5.15;1.75;;;15.70;71.40;;;;;;5054522;28;20025;-72
2023/03/14 05:34:10;;;;;;;6.63;1.67;;;15.70;71.40;;;;;;5055500;28;20100;-72
2023/03/14 05:36:36;;;;;;;6.30;1.70;;;15.70;71.10;;;;;;5055388;28;20116;-72
2023/03/14 05:39:02;;;;;;;4.10;1.20;;;15.70;71.10;;;;;;5055570;28;20099;-72
2023/03/14 05:41:29;;;;;;;4.38;1.83;;;15.60;71.30;;;;;;5054278;28;20050;-72
2023/03/14 05:43:54;;;;;;;6.00;1.90;;;15.60;70.70;;;;;;5054204;28;20388;-73
2023/03/14 05:46:20;;;;;;;5.70;1.38;;;15.60;71.00;;;;;;5054148;28;20108;-72
2023/03/14 05:48:45;;;;;;;6.57;1.80;;;15.60;71.00;;;;;;5055191;28;20059;-72
2023/03/14 05:51:11;;;;;;;5.40;1.77;;;15.60;71.00;;;;;;5066901;28;20119;-73
2023/03/14 05:53:37;;;;;;;5.93;1.70;;;15.60;71.10;;;;;;5073936;28;20032;-72
2023/03/14 05:56:02;;;;;;;5.05;1.60;;;15.60;70.60;;;;;;5072978;28;20063;-72
2023/03/14 05:58:28;;;;;;;3.50;1.20;;;15.50;71.00;;;;;;5072739;28;20051;-72
2023/03/14 06:00:54;;;;;;;4.78;1.40;;;15.60;70.80;;;;;;5057324;28;20034;-72
2023/03/14 06:03:19;;;;;;;7.60;1.50;;;15.50;70.90;;;;;;5074831;28;20453;-73
2023/03/14 06:05:45;;;;;;;4.57;1.38;;;15.60;71.00;;;;;;5073742;28;20024;-73
2023/03/14 06:08:11;;;;;;;4.88;1.35;;;15.60;71.00;;;;;;5075284;28;20381;-73
2023/03/14 06:10:37;;;;;;;3.97;1.48;;;15.60;70.90;;;;;;5069104;28;20024;-73
2023/03/14 06:13:03;;;;;;;6.28;1.40;;;15.50;70.90;;;;;;5051708;28;20013;-74
2023/03/14 06:15:28;;;;;;;4.10;1.75;;;15.50;70.80;;;;;;5052104;28;20032;-73
2023/03/14 06:17:55;;;;;;;5.93;1.50;;;15.50;70.90;;;;;;5052956;28;20059;-74
2023/03/14 06:20:21;;;;;;;6.53;1.45;;;15.50;70.80;;;;;;5051694;28;20021;-73
2023/03/14 06:22:46;;;;;;;5.30;1.70;;;15.50;70.90;;;;;;5051701;28;20025;-73
2023/03/14 06:25:12;;;;;;;4.40;1.50;;;15.50;70.80;;;;;;5053618;28;20025;-73
2023/03/14 06:27:37;;;;;;;6.28;1.42;;;15.50;71.00;;;;;;5084728;28;20112;-73
2023/03/14 06:30:04;;;;;;;7.47;1.30;;;15.50;71.00;;;;;;5051657;28;20452;-72
2023/03/14 06:32:29;;;;;;;5.22;1.67;;;15.50;71.20;;;;;;5050559;28;20021;-72
2023/03/14 06:34:57;;;;;;;3.95;1.25;;;15.60;71.50;;;;;;5052469;28;20028;-71
2023/03/14 06:37:22;;;;;;;6.03;1.42;;;15.60;71.60;;;;;;5049852;28;20025;-71
2023/03/14 06:39:48;;;;;;;3.47;1.10;;;15.60;71.70;;;;;;5051023;28;20484;-71
2023/03/14 06:42:13;;;;;;;5.32;1.45;;;15.70;71.70;;;;;;5053178;28;20033;-70
2023/03/14 06:44:39;;;;;;;3.72;1.10;;;15.70;71.70;;;;;;5071916;28;20025;-71
2023/03/14 06:47:05;;;;;;;2.55;0.85;;;15.70;71.60;;;;;;5069177;28;20028;-70
2023/03/14 06:49:30;;;;;;;2.88;0.95;;;15.70;71.70;;;;;;5052131;28;20013;-70
2023/03/14 06:51:56;;;;;;;2.90;1.00;;;15.70;71.70;;;;;;5050389;28;20338;-71
2023/03/14 06:54:22;;;;;;;2.92;1.23;;;15.70;71.70;;;;;;5050933;28;20025;-72
2023/03/14 06:56:47;;;;;;;2.63;0.95;;;15.80;71.70;;;;;;5067424;28;20021;-72
2023/03/14 06:59:13;;;;;;;2.90;1.13;;;15.80;71.70;;;;;;5050807;28;20021;-72
2023/03/14 07:01:39;;;;;;;2.60;1.13;;;15.80;71.70;;;;;;5083743;28;20051;-72
2023/03/14 07:04:05;;;;;;;4.30;1.10;;;15.80;71.60;;;;;;5052020;28;20021;-72
2023/03/14 07:06:31;;;;;;;3.50;0.82;;;15.80;71.60;;;;;;5050765;28;20100;-71
2023/03/14 07:08:57;;;;;;;3.85;1.08;;;15.80;71.50;;;;;;5050461;28;20477;-72
2023/03/14 07:11:22;;;;;;;4.95;1.15;;;15.90;71.60;;;;;;5051854;28;20021;-71
2023/03/14 07:13:48;;;;;;;18.73;3.72;;;15.90;71.50;;;;;;5050326;28;20048;-71
2023/03/14 07:16:14;;;;;;;29.50;5.28;;;15.90;71.90;;;;;;5052437;28;20037;-71
2023/03/14 07:18:39;;;;;;;28.02;4.78;;;15.90;72.60;;;;;;5050431;28;20024;-71
2023/03/14 07:21:12;;;;;;;28.40;4.90;;;15.90;73.00;;;;;;5051493;28;20100;-71
2023/03/14 07:23:37;;;;;;;21.67;3.58;;;15.90;73.00;;;;;;5050196;28;20021;-72
2023/03/14 07:26:03;;;;;;;15.30;3.13;;;16.00;73.00;;;;;;5050442;28;20056;-71
2023/03/14 07:28:29;;;;;;;21.73;4.38;;;16.00;72.90;;;;;;5050250;28;20079;-72
2023/03/14 07:30:55;;;;;;;13.00;2.90;;;16.00;72.80;;;;;;5050675;28;20374;-72
2023/03/14 07:33:20;;;;;;;16.05;3.97;;;16.00;72.60;;;;;;5050672;28;20029;-71
2023/03/14 07:35:49;;;;;;;17.50;3.10;;;16.00;72.50;;;;;;5051170;28;20024;-71
2023/03/14 07:38:15;;;;;;;16.70;3.25;;;16.00;72.30;;;;;;5052794;28;20053;-71
2023/03/14 07:40:41;;;;;;;10.90;2.80;;;16.00;72.20;;;;;;5051269;28;20025;-71
2023/03/14 07:43:06;;;;;;;9.52;2.65;;;16.00;72.10;;;;;;5083421;28;20110;-72
2023/03/14 07:45:33;;;;;;;11.20;2.60;;;16.00;72.00;;;;;;5084778;28;20538;-72
2023/03/14 07:47:59;;;;;;;12.77;2.97;;;16.00;71.90;;;;;;5075809;28;20539;-71
2023/03/14 07:50:25;;;;;;;10.80;3.38;;;16.00;72.90;;;;;;5064535;28;20046;-71
2023/03/14 07:52:51;;;;;;;9.25;2.50;;;16.00;71.70;;;;;;5064392;28;20022;-71
2023/03/14 07:55:17;;;;;;;9.25;2.55;;;16.00;71.70;;;;;;5047829;28;20108;-71
2023/03/14 07:57:42;;;;;;;9.68;2.80;;;16.00;71.60;;;;;;5032494;28;20025;-71
2023/03/14 08:00:09;;;;;;;11.30;2.67;;;16.00;71.60;;;;;;5031099;28;20068;-71
2023/03/14 08:02:36;;;;;;;10.57;2.50;;;16.00;71.50;;;;;;5047614;28;20037;-71
2023/03/14 08:05:02;;;;;;;7.93;2.60;;;16.00;71.40;;;;;;5074733;28;20063;-71
2023/03/14 08:07:27;;;;;;;8.75;2.45;;;16.00;71.30;;;;;;5050984;28;20021;-71
2023/03/14 08:09:53;;;;;;;10.20;2.67;;;16.00;71.20;;;;;;5050952;28;20028;-71
2023/03/14 08:12:19;;;;;;;10.77;2.60;;;16.10;70.80;;;;;;5052100;28;20523;-71
2023/03/14 08:14:44;;;;;;;9.40;2.70;;;16.00;70.60;;;;;;5051943;28;20570;-71
2023/03/14 08:17:10;;;;;;;8.52;2.55;;;16.10;70.70;;;;;;5052237;28;20170;-71
2023/03/14 08:19:36;;;;;;;8.18;2.35;;;16.00;70.60;;;;;;5050954;28;20025;-71
2023/03/14 08:22:02;;;;;;;6.13;2.05;;;16.00;70.70;;;;;;5051931;28;20025;-71
2023/03/14 08:24:27;;;;;;;7.75;2.38;;;16.00;70.60;;;;;;5050786;28;20079;-72
2023/03/14 08:26:53;;;;;;;8.68;2.00;;;16.00;70.60;;;;;;5052224;28;20025;-71
2023/03/14 08:29:19;;;;;;;8.15;2.42;;;16.00;70.60;;;;;;5052106;28;20055;-71
2023/03/14 08:31:44;;;;;;;7.22;2.38;;;16.00;70.40;;;;;;5052086;28;20028;-72
2023/03/14 08:34:10;;;;;;;9.95;2.58;;;16.00;70.50;;;;;;5050956;28;20047;-71
2023/03/14 08:36:36;;;;;;;7.07;2.00;;;16.00;70.40;;;;;;5050925;28;20480;-71
2023/03/14 08:39:03;;;;;;;10.10;1.80;;;16.00;70.40;;;;;;5051853;28;20013;-72
2023/03/14 08:41:29;;;;;;;6.43;1.80;;;16.10;70.50;;;;;;5050736;28;20021;-72
2023/03/14 08:43:54;;;;;;;9.02;2.10;;;16.10;70.40;;;;;;5050462;28;20032;-71
2023/03/14 08:46:20;;;;;;;8.98;1.83;;;16.00;70.40;;;;;;5050691;28;20111;-71
2023/03/14 08:48:46;;;;;;;6.05;1.77;;;16.00;70.30;;;;;;5051913;28;20021;-71
2023/03/14 08:51:13;;;;;;;4.93;1.88;;;16.10;70.40;;;;;;5051792;28;20138;-71
2023/03/14 08:53:39;;;;;;;7.47;1.90;;;16.10;70.30;;;;;;5050705;28;20013;-71
2023/03/14 08:56:06;;;;;;;7.25;2.15;;;16.10;70.30;;;;;;5050407;28;20401;-71
2023/03/14 08:58:32;;;;;;;9.68;2.35;;;16.10;70.30;;;;;;5050752;28;20060;-71
2023/03/14 09:00:58;;;;;;;5.13;1.60;;;16.10;70.20;;;;;;5051701;28;20027;-71
2023/03/14 09:03:24;;;;;;;8.20;2.28;;;16.10;70.20;;;;;;5050681;28;20021;-72
2023/03/14 09:05:50;;;;;;;5.70;2.05;;;16.10;70.20;;;;;;5054672;28;20064;-71
2023/03/14 09:08:16;;;;;;;6.10;2.10;;;16.10;70.20;;;;;;5088196;28;20017;-71
2023/03/14 09:10:42;;;;;;;6.70;1.95;;;16.10;70.20;;;;;;5087725;28;20094;-71
2023/03/14 09:13:07;;;;;;;9.10;2.17;;;16.10;70.10;;;;;;5055827;28;20542;-71
2023/03/14 09:15:33;;;;;;;6.60;1.58;;;16.10;70.10;;;;;;5067672;28;20033;-72
2023/03/14 09:17:59;;;;;;;5.95;1.80;;;16.10;70.10;;;;;;5035415;28;20034;-71
2023/03/14 09:20:24;;;;;;;4.70;1.60;;;16.10;71.10;;;;;;5050813;28;20144;-71
2023/03/14 09:22:50;;;;;;;7.00;2.10;;;16.10;70.00;;;;;;5067443;28;20519;-71
2023/03/14 09:25:16;;;;;;;4.70;1.60;;;16.10;70.10;;;;;;5067016;28;20034;-71
2023/03/14 09:27:41;;;;;;;6.07;1.70;;;16.10;70.90;;;;;;5067323;28;20045;-71
2023/03/14 09:30:08;;;;;;;4.50;1.83;;;16.10;70.00;;;;;;5067485;28;20032;-71
2023/03/14 09:32:33;;;;;;;5.70;1.70;;;16.10;69.90;;;;;;5035405;28;20041;-72
2023/03/14 09:34:59;;;;;;;7.10;2.03;;;16.10;70.00;;;;;;5050453;28;20064;-71
2023/03/14 09:37:25;;;;;;;5.43;1.92;;;16.10;70.00;;;;;;5050651;28;20076;-72
2023/03/14 09:39:50;;;;;;;4.80;1.45;;;16.10;69.90;;;;;;5050144;28;20029;-71
2023/03/14 09:42:22;;;;;;;4.93;1.45;;;16.10;69.90;;;;;;5067105;28;20071;-71
2023/03/14 09:44:59;;;;;;;7.22;1.70;;;16.10;69.90;;;;;;5050155;28;20017;-71
2023/03/14 09:47:25;;;;;;;3.90;1.63;;;16.10;69.80;;;;;;5050111;28;20064;-71
2023/03/14 09:49:50;;;;;;;4.32;1.48;;;16.10;69.70;;;;;;5050073;28;20077;-72
2023/03/14 09:52:25;;;;;;;4.68;1.40;;;16.10;69.80;;;;;;5033630;28;20032;-71
2023/03/14 09:55:27;;;;;;;4.68;1.45;;;16.10;69.60;;;;;;5066687;28;20033;-72
2023/03/14 09:57:59;;;;;;;5.07;2.22;;;16.10;69.60;;;;;;5007800;28;20117;-72
2023/03/14 10:00:26;;;;;;;4.68;1.58;;;16.10;69.60;;;;;;5012582;28;20460;-72
2023/03/14 10:02:53;;;;;;;7.47;1.77;;;16.10;69.60;;;;;;5012663;28;20075;-72
2023/03/14 10:05:20;;;;;;;5.35;1.95;;;16.10;69.50;;;;;;5012260;28;20486;-72
2023/03/14 10:07:45;;;;;;;4.18;1.50;;;16.10;69.20;;;;;;5012562;28;20525;-72
2023/03/14 10:10:21;;;;;;;7.40;2.40;;;16.10;69.20;;;;;;5012295;28;20056;-72
2023/03/14 10:12:49;;;;;;;4.85;1.58;;;16.10;69.40;;;;;;5011333;28;20061;-72
2023/03/14 10:15:21;;;;;;;5.15;1.92;;;16.10;69.10;;;;;;5011827;28;20128;-72
2023/03/14 10:17:48;;;;;;;3.60;1.30;;;16.10;69.10;;;;;;4994552;28;20509;-72
2023/03/14 10:20:32;;;;;;;5.25;1.80;;;16.10;68.90;;;;;;5012283;28;20291;-72
2023/03/14 10:23:02;;;;;;;3.83;1.50;;;16.10;68.70;;;;;;4995537;28;20029;-72
2023/03/14 10:25:29;;;;;;;6.13;1.85;;;16.10;69.00;;;;;;5011888;28;20104;-72
2023/03/14 10:27:55;;;;;;;7.40;1.63;;;16.00;69.00;;;;;;5028805;28;20065;-72
2023/03/14 10:30:43;;;;;;;4.82;1.50;;;16.10;69.00;;;;;;4995823;28;20018;-72
2023/03/14 10:33:18;;;;;;;5.72;1.80;;;16.10;69.00;;;;;;5047379;28;20064;-72
2023/03/14 10:35:44;;;;;;;3.85;1.17;;;16.00;68.80;;;;;;5034015;28;20029;-72
2023/03/14 10:38:15;;;;;;;5.00;1.63;;;16.00;68.80;;;;;;5049103;28;20052;-72
2023/03/14 10:40:49;;;;;;;5.20;1.95;;;16.00;68.90;;;;;;5032572;28;20424;-72
2023/03/14 10:43:16;;;;;;;6.60;2.05;;;16.10;68.80;;;;;;5048171;28;20021;-72
2023/03/14 10:45:43;;;;;;;4.53;1.80;;;16.00;68.60;;;;;;5048983;28;20021;-72
2023/03/14 10:48:15;;;;;;;4.75;1.60;;;16.10;68.70;;;;;;5065561;28;20034;-72
2023/03/14 10:50:53;;;;;;;5.30;1.52;;;16.10;68.80;;;;;;5033498;28;20056;-72
2023/03/14 10:53:19;;;;;;;6.30;1.50;;;16.10;68.80;;;;;;5065358;28;20464;-72
2023/03/14 10:55:45;;;;;;;7.05;1.88;;;16.10;68.80;;;;;;5065684;28;20049;-72
2023/03/14 10:58:20;;;;;;;4.53;1.63;;;16.10;68.70;;;;;;5048791;28;20026;-72
2023/03/14 11:01:23;;;;;;;6.15;1.77;;;16.00;68.60;;;;;;5033642;28;20477;-72
2023/03/14 11:03:57;;;;;;;4.65;1.75;;;16.10;68.50;;;;;;5034049;28;20029;-72
2023/03/14 11:06:36;;;;;;;4.80;1.30;;;16.00;68.60;;;;;;5035392;28;20025;-72
2023/03/14 11:09:18;;;;;;;5.43;1.40;;;16.10;68.60;;;;;;5052146;28;20025;-72
2023/03/14 11:11:46;;;;;;;4.53;1.25;;;16.10;68.70;;;;;;5048767;28;20104;-72
2023/03/14 11:14:26;;;;;;;4.22;1.73;;;16.00;68.60;;;;;;5048577;28;20413;-72
2023/03/14 11:17:19;;;;;;;4.40;1.55;;;16.00;68.60;;;;;;5047414;28;20568;-72
2023/03/14 11:20:09;;;;;;;4.10;1.48;;;16.00;68.50;;;;;;5033258;28;20128;-72
2023/03/14 11:23:07;;;;;;;3.97;1.40;;;16.00;68.70;;;;;;5031625;28;20033;-72
2023/03/14 11:25:56;;;;;;;6.10;1.80;;;16.00;68.60;;;;;;5030760;28;20040;-72
2023/03/14 11:28:40;;;;;;;4.22;1.58;;;16.10;68.60;;;;;;5016796;28;20113;-72
2023/03/14 11:31:26;;;;;;;4.30;1.60;;;16.10;68.50;;;;;;4998027;28;20029;-72
2023/03/14 11:34:02;;;;;;;4.65;1.42;;;16.00;68.50;;;;;;4998081;28;20108;-72
2023/03/14 11:36:35;;;;;;;3.60;1.35;;;16.00;68.60;;;;;;5030665;28;20040;-72
2023/03/14 11:39:00;;;;;;;4.47;1.50;;;16.00;68.60;;;;;;5014490;28;20390;-72
2023/03/14 11:41:33;;;;;;;5.03;1.30;;;16.10;68.60;;;;;;5014418;28;20032;-72
2023/03/14 11:44:01;;;;;;;3.75;1.40;;;16.10;68.60;;;;;;4998417;28;20042;-72
2023/03/14 11:46:41;;;;;;;3.55;1.40;;;16.10;68.60;;;;;;4998129;28;20045;-72
2023/03/14 11:49:06;;;;;;;5.00;1.45;;;16.10;68.60;;;;;;4998147;28;20039;-72
2023/03/14 11:51:43;;;;;;;4.50;1.45;;;16.10;68.60;;;;;;5030230;28;20042;-72
2023/03/14 11:54:20;;;;;;;3.55;1.30;;;16.10;68.60;;;;;;4997828;28;20076;-72
2023/03/14 11:56:59;;;;;;;4.10;1.50;;;16.10;68.60;;;;;;5030589;28;20437;-72
2023/03/14 11:59:29;;;;;;;5.20;1.55;;;16.10;68.60;;;;;;5014628;28;20513;-72
2023/03/14 12:01:59;;;;;;;5.28;1.65;;;16.10;68.70;;;;;;5001854;28;20037;-72
2023/03/14 12:04:39;;;;;;;3.50;1.25;;;16.10;68.60;;;;;;5069989;28;20113;-72
2023/03/14 12:07:29;;;;;;;4.93;1.70;;;16.10;68.70;;;;;;5052375;28;20099;-72
2023/03/14 12:09:55;;;;;;;4.15;1.45;;;16.10;68.60;;;;;;5051194;28;20032;-72
2023/03/14 12:12:22;;;;;;;3.97;1.65;;;16.10;68.60;;;;;;5051000;28;20025;-72
2023/03/14 12:14:55;;;;;;;3.63;1.40;;;16.10;68.70;;;;;;5051270;28;20388;-72
2023/03/14 12:17:37;;;;;;;3.63;1.60;;;16.10;68.60;;;;;;5051015;28;20155;-72
2023/03/14 12:20:19;;;;;;;2.67;1.50;;;16.10;68.70;;;;;;5050888;28;20021;-72
2023/03/14 12:22:46;;;;;;;5.43;1.53;;;16.10;68.60;;;;;;5051163;28;20041;-72
2023/03/14 12:25:14;;;;;;;3.17;1.08;;;16.10;68.60;;;;;;5034016;28;20071;-72
2023/03/14 12:27:41;;;;;;;2.78;1.27;;;16.10;68.70;;;;;;5052003;28;20035;-72
2023/03/14 12:30:35;;;;;;;3.03;1.17;;;16.10;68.60;;;;;;5052080;28;20025;-72
2023/03/14 12:33:29;;;;;;;3.88;1.30;;;16.10;68.60;;;;;;5040164;28;20064;-72
2023/03/14 12:36:00;;;;;;;4.05;1.40;;;16.10;68.60;;;;;;5052128;28;20021;-72
2023/03/14 12:38:44;;;;;;;2.80;1.10;;;16.10;68.60;;;;;;5050723;28;20079;-72
2023/03/14 12:41:28;;;;;;;4.78;1.30;;;16.10;68.60;;;;;;5055990;28;20028;-72
2023/03/14 12:43:54;;;;;;;3.45;1.13;;;16.10;69.70;;;;;;5054807;28;20031;-72
2023/03/14 12:46:29;;;;;;;1.83;0.85;;;16.20;68.80;;;;;;5054793;28;20099;-72
2023/03/14 12:49:00;;;;;;;2.88;1.00;;;16.10;68.60;;;;;;5054665;28;20021;-72
2023/03/14 12:51:41;;;;;;;2.92;1.08;;;16.20;68.70;;;;;;5055653;28;20107;-72